全部
Anderstorp Airport (Anderstorp) ESMP 天氣
There is no TAF data available at ESMP. Showing TAF data for ESMV (20 mi E).
ESMV終端機場天氣預報(ESMP無資料)
| Date | Time (CEST) | Flight Rules | Wind Dir. | Speed | Type | Height AGL (ft) | Visibility | Remarks | ||||||
|---|---|---|---|---|---|---|---|---|---|---|---|---|---|---|
There is no METAR data available at ESMP. Showing METAR data for ESMV (20 mi E).
ESMV近期METAR歷史資料(ESMP無資料)
| Date | Time (CEST) | Flight Rules | Wind Dir. | Speed | Type | Height AGL (ft) | Visibility | Temp (°C) | Temp (°F) | Dew Point (°C) | Dew Point (°F) | Rel. Humid. | Pressure | Density Altitude | Remarks |
|---|---|---|---|---|---|---|---|---|---|---|---|---|---|---|---|
| 02-五月 | 23:20 | VFR | 210° | 5 kt | Scattered |
12,000 |
10000 meters | 13° | 55° | 3° | 37° | 51% | 1011 mb | 381 ft | |
| 02-五月 | 22:50 | VFR | 200° | 4 kt | 10000 meters | 14° | 57° | 3° | 37° | 47% | 1011 mb | 501 ft | |||
| 02-五月 | 22:20 | VFR | 180° | 3 kt | 10000 meters | 13° | 55° | 2° | 35° | 47% | 1011 mb | 381 ft | |||
| 02-五月 | 21:50 | VFR | 180° | 3 kt | 10000 meters | 14° | 57° | 1° | 33° | 41% | 1011 mb | 501 ft | |||
| 02-五月 | 21:20 | VFR | Variable | 2 kt | 10000 meters | 15° | 59° | 1° | 33° | 39% | 1012 mb | 592 ft | |||
| 02-五月 | 20:50 | VFR | 220° | 6 kt | 10000 meters | 16° | 60° | 0° | 32° | 34% | 1011 mb | 741 ft | |||
| 02-五月 | 20:20 | VFR | 230° | 8 kt | 10000 meters | 19° | 66° | -1° | 30° | 26% | 1012 mb | 1,072 ft | |||
| 02-五月 | 19:50 | VFR | 220° | 10 kt | 10000 meters | 20° | 68° | -1° | 30° | 24% | 1012 mb | 1,192 ft | |||
| 02-五月 | 19:20 | VFR | 230° | 13 kt | 10000 meters | 20° | 68° | -2° | 28° | 23% | 1012 mb | 1,192 ft | |||
| 02-五月 | 18:50 | VFR | 230° | 15 kt | 10000 meters | 21° | 69° | -1° | 30° | 23% | 1012 mb | 1,312 ft | |||
| 02-五月 | 18:20 | VFR | 230° | 14 kt | 10000 meters | 21° | 69° | 0° | 32° | 25% | 1012 mb | 1,312 ft | |||
| 02-五月 | 17:50 | VFR | 240° | 13 kt | 10000 meters | 22° | 71° | 0° | 32° | 23% | 1012 mb | 1,432 ft | |||
| 02-五月 | 17:20 | VFR | 230° | 15 kt | 10000 meters | 22° | 71° | 1° | 33° | 25% | 1012 mb | 1,432 ft | |||
| 02-五月 | 16:50 | VFR | 230° | 12 kt | 10000 meters | 22° | 71° | 3° | 37° | 29% | 1013 mb | 1,402 ft | |||
| 02-五月 | 16:20 | VFR | 230° | 16 kt | 10000 meters | 23° | 73° | 2° | 35° | 25% | 1013 mb | 1,522 ft | |||
| 02-五月 | 15:50 | VFR | 250° | 12 kt | 10000 meters | 23° | 73° | 2° | 35° | 25% | 1013 mb | 1,522 ft | |||
| 02-五月 | 15:20 | VFR | 220° | 14 kt | 10000 meters | 23° | 73° | 3° | 37° | 27% | 1013 mb | 1,522 ft | |||
| 02-五月 | 14:50 | VFR | 220° | 15 kt | 10000 meters | 23° | 73° | 3° | 37° | 27% | 1014 mb | 1,493 ft | |||
| 02-五月 | 14:20 | VFR | 220° | 15 kt | 10000 meters | 23° | 73° | 3° | 37° | 27% | 1014 mb | 1,493 ft | |||
| 02-五月 | 13:50 | VFR | 220° | 13 kt | 10000 meters | 23° | 73° | 4° | 39° | 29% | 1015 mb | 1,463 ft | |||
| 02-五月 | 13:20 | VFR | 220° | 15 kt | 10000 meters | 23° | 73° | 4° | 39° | 29% | 1015 mb | 1,463 ft | |||
| 02-五月 | 12:50 | VFR | 220° | 15 kt | 10000 meters | 22° | 71° | 4° | 39° | 31% | 1015 mb | 1,343 ft | Wind gusting to 25 KT | ||
| 02-五月 | 12:20 | VFR | 210° | 12 kt | 10000 meters | 21° | 69° | 5° | 41° | 35% | 1016 mb | 1,194 ft | |||
| 02-五月 | 11:50 | VFR | 210° | 12 kt | 10000 meters | 21° | 69° | 4° | 39° | 33% | 1016 mb | 1,194 ft |
登入
| 您的瀏覽器不支援. 升級您的瀏覽器 |
